createdAt,value
2018-12-22T00:01:54.142Z,1.60
2018-12-22T00:04:28.505Z,1.10
2018-12-22T00:07:02.933Z,1.43
2018-12-22T00:09:37.344Z,1.30
2018-12-22T00:12:11.573Z,1.20
2018-12-22T00:14:45.811Z,1.40
2018-12-22T00:17:20.226Z,1.13
2018-12-22T00:19:54.624Z,1.30
2018-12-22T00:22:28.950Z,1.80
2018-12-22T00:25:03.429Z,1.20
2018-12-22T00:27:38.863Z,1.30
2018-12-22T00:30:13.449Z,1.67
2018-12-22T00:32:47.756Z,1.30
2018-12-22T00:35:22.113Z,1.10
2018-12-22T00:37:57.362Z,1.47
2018-12-22T00:40:31.624Z,1.37
2018-12-22T00:43:06.094Z,1.30
2018-12-22T00:45:40.577Z,1.30
2018-12-22T00:48:14.888Z,1.50
2018-12-22T00:50:49.441Z,1.40
2018-12-22T00:53:23.706Z,1.40
2018-12-22T00:55:58.033Z,1.60
2018-12-22T00:58:32.277Z,1.40
2018-12-22T01:01:06.718Z,1.43
2018-12-22T01:03:40.960Z,1.33
2018-12-22T01:06:15.264Z,1.50
2018-12-22T01:08:49.649Z,1.50
2018-12-22T01:11:23.836Z,2.33
2018-12-22T01:13:58.138Z,2.00
2018-12-22T01:16:32.636Z,1.60
2018-12-22T01:19:06.857Z,1.60
2018-12-22T01:21:41.077Z,2.50
2018-12-22T01:24:15.401Z,1.47
2018-12-22T01:26:49.754Z,1.17
2018-12-22T01:29:24.172Z,1.40
2018-12-22T01:31:58.383Z,3.77
2018-12-22T01:34:32.676Z,1.43
2018-12-22T01:37:06.980Z,1.40
2018-12-22T01:39:41.192Z,1.90
2018-12-22T01:42:15.385Z,2.00
2018-12-22T01:44:49.773Z,1.37
2018-12-22T01:47:24.033Z,1.60
2018-12-22T01:49:58.431Z,1.30
2018-12-22T01:52:32.825Z,1.40
2018-12-22T01:55:07.503Z,1.40
2018-12-22T01:57:42.072Z,1.20
2018-12-22T02:00:16.359Z,1.47
2018-12-22T02:02:50.725Z,1.43
2018-12-22T02:05:25.106Z,1.60
2018-12-22T02:07:59.282Z,2.73
2018-12-22T02:10:33.758Z,2.77
2018-12-22T02:13:07.955Z,4.17
2018-12-22T02:15:42.225Z,3.23
2018-12-22T02:18:16.434Z,4.03
2018-12-22T02:20:50.728Z,6.60
2018-12-22T02:23:24.929Z,3.00
2018-12-22T02:25:59.258Z,3.63
2018-12-22T02:28:33.477Z,2.10
2018-12-22T02:31:07.694Z,6.10
2018-12-22T02:33:42.108Z,2.10
2018-12-22T02:36:16.336Z,1.40
2018-12-22T02:38:50.616Z,2.40
2018-12-22T02:41:24.829Z,1.73
2018-12-22T02:43:59.133Z,1.60
2018-12-22T02:46:33.374Z,1.30
2018-12-22T02:49:07.781Z,1.80
2018-12-22T02:51:42.222Z,1.70
2018-12-22T02:54:16.916Z,1.63
2018-12-22T02:56:51.236Z,1.70
2018-12-22T02:59:25.594Z,1.93
2018-12-22T03:02:00.923Z,1.90
2018-12-22T03:04:35.218Z,1.80
2018-12-22T03:07:09.445Z,1.50
2018-12-22T03:09:43.728Z,1.90
2018-12-22T03:12:17.955Z,1.80
2018-12-22T03:14:52.289Z,2.00
2018-12-22T03:17:26.525Z,1.97
2018-12-22T03:20:00.857Z,1.70
2018-12-22T03:22:35.093Z,2.03
2018-12-22T03:25:09.329Z,1.80
2018-12-22T03:27:43.810Z,1.40
2018-12-22T03:30:18.031Z,1.50
2018-12-22T03:32:52.395Z,1.30
2018-12-22T03:35:27.116Z,1.80
2018-12-22T03:38:01.514Z,1.73
2018-12-22T03:40:36.020Z,3.33
2018-12-22T03:43:11.317Z,1.63
2018-12-22T03:45:45.561Z,1.77
2018-12-22T03:48:19.847Z,1.30
2018-12-22T03:50:54.147Z,1.40
2018-12-22T03:53:29.398Z,1.60
2018-12-22T03:56:03.897Z,1.60
2018-12-22T03:58:38.160Z,1.40
2018-12-22T04:01:12.586Z,1.27
2018-12-22T04:03:46.800Z,1.60
2018-12-22T04:06:21.056Z,1.40
2018-12-22T04:08:55.352Z,1.30
2018-12-22T04:11:29.699Z,2.00
2018-12-22T04:14:04.290Z,3.00
2018-12-22T04:16:38.561Z,3.00
2018-12-22T04:19:12.943Z,2.67
2018-12-22T04:21:47.153Z,2.37
2018-12-22T04:24:21.371Z,4.67
2018-12-22T04:26:55.714Z,2.40
2018-12-22T04:29:34.103Z,1.30
2018-12-22T04:32:06.531Z,2.23
2018-12-22T04:34:41.066Z,1.13
2018-12-22T04:37:15.245Z,2.10
2018-12-22T04:39:49.479Z,3.87
2018-12-22T04:42:23.785Z,2.00
2018-12-22T04:44:58.112Z,2.63
2018-12-22T04:47:32.445Z,2.17
2018-12-22T04:50:06.708Z,2.00
2018-12-22T04:52:41.113Z,3.20
2018-12-22T04:55:15.463Z,1.73
2018-12-22T04:57:49.824Z,1.87
2018-12-22T05:00:24.181Z,1.33
2018-12-22T05:02:58.697Z,1.40
2018-12-22T05:05:33.001Z,1.33
2018-12-22T05:08:07.223Z,2.30
2018-12-22T05:10:41.582Z,1.50
2018-12-22T05:13:15.915Z,1.37
2018-12-22T05:15:50.136Z,1.20
2018-12-22T05:18:24.507Z,1.20
2018-12-22T05:20:58.798Z,5.20
2018-12-22T05:23:33.260Z,2.20
2018-12-22T05:26:07.588Z,1.10
2018-12-22T05:28:41.895Z,1.83
2018-12-22T05:31:16.325Z,1.50
2018-12-22T05:33:50.655Z,1.50
2018-12-22T05:36:25.078Z,1.40
2018-12-22T05:38:59.298Z,1.73
2018-12-22T05:41:33.652Z,2.20
2018-12-22T05:44:07.871Z,1.20
2018-12-22T05:46:42.130Z,1.20
2018-12-22T05:49:17.440Z,1.37
2018-12-22T05:51:51.697Z,1.80
2018-12-22T05:54:26.030Z,2.10
2018-12-22T05:57:00.267Z,1.40
2018-12-22T05:59:34.644Z,1.20
2018-12-22T06:02:08.873Z,2.00
2018-12-22T06:04:43.200Z,2.97
2018-12-22T06:07:17.581Z,1.67
2018-12-22T06:09:51.851Z,1.70
2018-12-22T06:12:26.089Z,1.30
2018-12-22T06:15:00.372Z,1.60
2018-12-22T06:17:34.622Z,1.73
2018-12-22T06:20:10.064Z,1.37
2018-12-22T06:22:44.248Z,1.93
2018-12-22T06:25:18.518Z,1.73
2018-12-22T06:27:52.750Z,1.97
2018-12-22T06:30:27.057Z,1.53
2018-12-22T06:33:01.406Z,1.83
2018-12-22T06:35:35.636Z,2.47
2018-12-22T06:38:09.902Z,1.90
2018-12-22T06:40:44.220Z,2.23
2018-12-22T06:43:18.448Z,1.50
2018-12-22T06:45:52.676Z,1.47
2018-12-22T06:48:26.994Z,1.57
2018-12-22T06:51:01.354Z,1.37
2018-12-22T06:53:35.816Z,1.70
2018-12-22T06:56:10.292Z,1.20
2018-12-22T06:58:44.601Z,1.20
2018-12-22T07:01:18.917Z,1.43
2018-12-22T07:03:53.221Z,1.87
2018-12-22T07:06:27.525Z,3.23
2018-12-22T07:09:01.731Z,1.30
2018-12-22T07:11:35.979Z,1.20
2018-12-22T07:14:10.218Z,1.30
2018-12-22T07:16:44.559Z,1.67
2018-12-22T07:19:18.822Z,1.57
2018-12-22T07:21:53.093Z,2.00
2018-12-22T07:24:27.512Z,1.40
2018-12-22T07:27:01.868Z,1.30
2018-12-22T07:29:36.258Z,3.53
2018-12-22T07:32:10.497Z,1.40
2018-12-22T07:34:44.884Z,1.77
2018-12-22T07:37:19.114Z,2.53
2018-12-22T07:39:53.341Z,1.63
2018-12-22T07:42:27.605Z,2.03
2018-12-22T07:45:01.847Z,1.77
2018-12-22T07:47:36.189Z,1.53
2018-12-22T07:50:10.515Z,1.20
2018-12-22T07:52:51.615Z,1.63
2018-12-22T07:55:21.213Z,1.40
2018-12-22T07:57:55.564Z,2.57
2018-12-22T08:00:34.806Z,1.40
2018-12-22T08:03:06.477Z,1.40
2018-12-22T08:05:41.655Z,1.60
2018-12-22T08:08:16.028Z,1.50
2018-12-22T08:10:50.763Z,3.23
2018-12-22T08:13:26.924Z,1.20
2018-12-22T08:16:01.968Z,1.60
2018-12-22T08:18:38.692Z,1.43
2018-12-22T08:21:22.172Z,1.50
2018-12-22T08:23:56.479Z,2.67
2018-12-22T08:26:30.813Z,1.30
2018-12-22T08:29:05.125Z,1.33
2018-12-22T08:31:39.482Z,1.60
2018-12-22T08:34:13.760Z,2.30
2018-12-22T08:36:48.114Z,1.63
2018-12-22T08:39:22.332Z,1.67
2018-12-22T08:41:56.799Z,2.07
2018-12-22T08:44:31.182Z,4.20
2018-12-22T08:47:05.489Z,1.90
2018-12-22T08:49:39.834Z,2.57
2018-12-22T08:52:14.172Z,1.80
2018-12-22T08:54:49.403Z,1.80
2018-12-22T08:57:23.757Z,3.17
2018-12-22T08:59:58.066Z,2.40
2018-12-22T09:02:32.423Z,1.50
2018-12-22T09:05:07.109Z,1.97
2018-12-22T09:07:41.515Z,2.40
2018-12-22T09:10:15.816Z,1.77
2018-12-22T09:12:50.254Z,1.73
2018-12-22T09:15:24.614Z,2.33
2018-12-22T09:17:59.019Z,3.97
2018-12-22T09:20:33.488Z,3.37
2018-12-22T09:23:07.917Z,4.60
2018-12-22T09:25:42.117Z,4.87
2018-12-22T09:28:16.328Z,3.27
2018-12-22T09:30:50.664Z,5.73
2018-12-22T09:33:25.019Z,5.50
2018-12-22T09:35:59.445Z,5.97
2018-12-22T09:38:33.727Z,3.43
2018-12-22T09:41:08.092Z,5.40
2018-12-22T09:43:42.346Z,4.53
2018-12-22T09:46:16.688Z,5.67
2018-12-22T09:48:51.040Z,5.03
2018-12-22T09:51:25.445Z,5.17
2018-12-22T09:53:59.846Z,6.53
2018-12-22T09:56:34.233Z,6.77
2018-12-22T09:59:08.528Z,5.57
2018-12-22T10:01:42.842Z,7.70
2018-12-22T10:04:17.036Z,6.03
2018-12-22T10:06:51.344Z,6.53
2018-12-22T10:09:25.723Z,1.50
2018-12-22T10:11:59.933Z,3.83
2018-12-22T10:14:34.278Z,2.10
2018-12-22T10:17:08.635Z,1.33
2018-12-22T10:19:42.990Z,2.83
2018-12-22T10:22:17.347Z,3.00
2018-12-22T10:24:51.560Z,1.83
2018-12-22T10:27:25.796Z,2.67
2018-12-22T10:30:00.164Z,3.60
2018-12-22T10:32:34.559Z,3.37
2018-12-22T10:35:12.825Z,4.03
2018-12-22T10:37:47.241Z,2.20
2018-12-22T10:40:21.607Z,1.70
2018-12-22T10:42:55.948Z,3.57
2018-12-22T10:45:30.227Z,4.37
2018-12-22T10:48:04.542Z,4.03
2018-12-22T10:50:38.884Z,2.43
2018-12-22T10:53:13.221Z,2.83
2018-12-22T10:55:47.591Z,1.80
2018-12-22T10:58:21.783Z,2.97
2018-12-22T11:00:56.430Z,5.20
2018-12-22T11:03:32.089Z,2.97
2018-12-22T11:06:06.616Z,3.03
2018-12-22T11:08:41.202Z,2.27
2018-12-22T11:11:15.544Z,4.30
2018-12-22T11:13:49.758Z,6.23
2018-12-22T11:16:24.105Z,6.90
2018-12-22T11:18:58.589Z,5.97
2018-12-22T11:21:34.812Z,4.07
2018-12-22T11:24:09.145Z,3.50
2018-12-22T11:26:43.368Z,3.00
2018-12-22T11:29:17.814Z,2.40
2018-12-22T11:31:53.492Z,3.50
2018-12-22T11:34:30.943Z,6.27
2018-12-22T11:37:05.297Z,5.03
2018-12-22T11:39:39.633Z,3.10
2018-12-22T11:42:13.988Z,2.10
2018-12-22T11:44:48.330Z,3.70
2018-12-22T11:47:38.702Z,2.40
2018-12-22T11:50:17.903Z,5.60
2018-12-22T11:52:52.257Z,2.17
2018-12-22T11:55:26.669Z,2.23
2018-12-22T11:58:00.901Z,1.80
2018-12-22T12:00:35.291Z,2.90
2018-12-22T12:03:09.612Z,2.00
2018-12-22T12:05:44.216Z,2.77
2018-12-22T12:08:18.685Z,1.80
2018-12-22T12:10:52.880Z,2.10
2018-12-22T12:13:27.170Z,2.07
2018-12-22T12:16:18.243Z,3.63
2018-12-22T12:19:10.490Z,1.70
2018-12-22T12:21:46.337Z,3.83
2018-12-22T12:24:25.653Z,4.50
2018-12-22T12:27:06.756Z,1.80
2018-12-22T12:29:40.942Z,3.73
2018-12-22T12:32:15.232Z,2.30
2018-12-22T12:34:49.603Z,3.10
2018-12-22T12:37:23.862Z,3.10
2018-12-22T12:39:58.090Z,1.43
2018-12-22T12:42:32.514Z,1.77
2018-12-22T12:45:09.209Z,2.50
2018-12-22T12:47:44.588Z,4.07
2018-12-22T12:50:20.882Z,1.73
2018-12-22T12:52:55.131Z,3.17
2018-12-22T12:55:29.353Z,2.83
2018-12-22T12:58:04.590Z,7.23
2018-12-22T13:00:39.418Z,2.97
2018-12-22T13:03:13.714Z,2.20
2018-12-22T13:05:48.721Z,3.13
2018-12-22T13:08:23.031Z,2.73
2018-12-22T13:10:57.418Z,2.57
2018-12-22T13:13:44.703Z,2.70
2018-12-22T13:16:19.043Z,2.83
2018-12-22T13:18:53.432Z,2.13
2018-12-22T13:21:28.018Z,2.63
2018-12-22T13:24:02.418Z,3.93
2018-12-22T13:26:37.245Z,2.97
2018-12-22T13:29:12.493Z,5.40
2018-12-22T13:31:47.153Z,4.13
2018-12-22T13:34:29.357Z,5.37
2018-12-22T13:37:04.736Z,5.53
2018-12-22T13:39:39.074Z,3.80
2018-12-22T13:42:16.304Z,5.37
2018-12-22T13:44:50.650Z,2.80
2018-12-22T13:47:24.956Z,3.87
2018-12-22T13:49:59.515Z,4.47
2018-12-22T13:52:33.984Z,5.87
2018-12-22T13:55:08.359Z,6.60
2018-12-22T13:57:42.702Z,5.77
2018-12-22T14:00:17.303Z,4.53
2018-12-22T14:02:51.542Z,6.23
2018-12-22T14:05:25.949Z,4.93
2018-12-22T14:08:00.180Z,5.43
2018-12-22T14:10:34.534Z,8.47
2018-12-22T14:13:09.146Z,3.57
2018-12-22T14:15:51.058Z,6.53
2018-12-22T14:18:32.958Z,4.33
2018-12-22T14:21:07.269Z,5.17
2018-12-22T14:24:15.408Z,5.83
2018-12-22T14:26:49.837Z,3.67
2018-12-22T14:31:59.415Z,2.37
2018-12-22T14:34:38.125Z,5.60
2018-12-22T14:37:12.574Z,5.63
2018-12-22T14:39:46.951Z,2.57
2018-12-22T14:42:21.177Z,3.47
2018-12-22T14:44:55.516Z,6.27
2018-12-22T14:47:29.904Z,7.03
2018-12-22T14:50:04.739Z,5.13
2018-12-22T14:52:39.162Z,4.73
2018-12-22T14:55:13.644Z,6.47
2018-12-22T14:57:52.531Z,5.23
2018-12-22T15:00:27.048Z,5.17
2018-12-22T15:03:01.316Z,6.77
2018-12-22T15:05:35.553Z,3.90
2018-12-22T15:08:09.818Z,5.07
2018-12-22T15:10:44.163Z,4.33
2018-12-22T15:13:19.443Z,5.43
2018-12-22T15:15:53.663Z,3.50
2018-12-22T15:18:27.984Z,3.53
2018-12-22T15:21:02.351Z,2.67
2018-12-22T15:23:36.657Z,2.00
2018-12-22T15:26:10.964Z,2.43
2018-12-22T15:28:47.265Z,3.70
2018-12-22T15:31:21.749Z,4.10
2018-12-22T15:33:56.185Z,5.53
2018-12-22T15:36:30.436Z,3.07
2018-12-22T15:39:07.303Z,2.07
2018-12-22T15:41:41.636Z,3.40
2018-12-22T15:44:16.002Z,4.40
2018-12-22T15:46:50.306Z,4.87
2018-12-22T15:49:24.730Z,3.50
2018-12-22T15:51:59.058Z,4.70
2018-12-22T15:54:33.378Z,3.03
2018-12-22T15:57:07.742Z,5.03
2018-12-22T15:59:42.401Z,4.70
2018-12-22T16:02:18.782Z,5.60
2018-12-22T16:04:53.070Z,4.37
2018-12-22T16:07:29.286Z,3.33
2018-12-22T16:10:04.512Z,5.43
2018-12-22T16:12:38.845Z,6.20
2018-12-22T16:15:15.399Z,6.23
2018-12-22T16:17:49.843Z,4.10
2018-12-22T16:20:24.524Z,3.70
2018-12-22T16:23:01.784Z,6.93
2018-12-22T16:25:36.263Z,7.03
2018-12-22T16:28:17.324Z,5.33
2018-12-22T16:30:54.289Z,13.47
2018-12-22T16:33:28.625Z,18.57
2018-12-22T16:36:03.029Z,25.27
2018-12-22T16:38:37.329Z,22.57
2018-12-22T16:41:12.626Z,20.57
2018-12-22T16:43:46.870Z,20.63
2018-12-22T16:46:21.086Z,24.67
2018-12-22T16:48:55.307Z,21.20
2018-12-22T16:51:30.084Z,13.23
2018-12-22T16:54:04.498Z,10.30
2018-12-22T16:56:38.722Z,9.67
2018-12-22T16:59:13.069Z,8.40
2018-12-22T17:01:55.146Z,9.27
2018-12-22T17:04:29.599Z,7.43
2018-12-22T17:07:04.183Z,10.97
2018-12-22T17:09:38.670Z,10.63
2018-12-22T17:12:12.955Z,6.40
2018-12-22T17:14:47.360Z,7.50
2018-12-22T17:17:21.670Z,10.00
2018-12-22T17:19:56.026Z,14.67
2018-12-22T17:22:38.245Z,14.83
2018-12-22T17:25:18.978Z,12.47
2018-12-22T17:27:53.442Z,17.97
2018-12-22T17:30:27.820Z,15.00
2018-12-22T17:33:19.063Z,14.13
2018-12-22T17:36:03.550Z,12.43
2018-12-22T17:41:31.739Z,12.90
2018-12-22T17:44:06.054Z,11.90
2018-12-22T17:46:40.380Z,14.30
2018-12-22T17:49:14.731Z,10.87
2018-12-22T17:51:48.960Z,7.73
2018-12-22T17:54:23.350Z,9.70
2018-12-22T17:56:57.682Z,7.53
2018-12-22T17:59:32.123Z,13.10
2018-12-22T18:02:06.568Z,9.47
2018-12-22T18:04:40.932Z,15.27
2018-12-22T18:07:15.256Z,6.87
2018-12-22T18:09:49.460Z,4.40
2018-12-22T18:12:23.805Z,7.40
2018-12-22T18:14:58.083Z,7.37
2018-12-22T18:17:32.429Z,6.77
2018-12-22T18:20:10.100Z,5.83
2018-12-22T18:22:45.032Z,9.47
2018-12-22T18:25:19.609Z,7.53
2018-12-22T18:27:54.194Z,4.67
2018-12-22T18:30:28.633Z,6.03
2018-12-22T18:33:02.999Z,5.27
2018-12-22T18:35:37.255Z,6.03
2018-12-22T18:38:17.075Z,6.40
2018-12-22T18:40:52.342Z,5.00
2018-12-22T18:43:26.554Z,4.60
2018-12-22T18:46:00.756Z,3.97
2018-12-22T18:48:35.211Z,6.77
2018-12-22T18:51:09.652Z,8.73
2018-12-22T18:53:44.074Z,5.97
2018-12-22T18:58:56.373Z,4.17
2018-12-22T19:01:30.699Z,3.43
2018-12-22T19:04:05.036Z,4.70
2018-12-22T19:06:39.269Z,3.33
2018-12-22T19:09:20.156Z,3.07
2018-12-22T19:11:54.725Z,7.33
2018-12-22T19:14:29.089Z,6.10
2018-12-22T19:17:03.339Z,5.33
2018-12-22T19:19:37.768Z,4.40
2018-12-22T19:22:12.030Z,4.07
2018-12-22T19:24:46.426Z,3.77
2018-12-22T19:27:20.692Z,2.83
2018-12-22T19:29:54.908Z,3.33
2018-12-22T19:32:29.231Z,4.47
2018-12-22T19:35:03.898Z,7.40
2018-12-22T19:37:38.238Z,3.30
2018-12-22T19:40:12.507Z,4.70
2018-12-22T19:42:47.154Z,5.10
2018-12-22T19:45:21.538Z,4.70
2018-12-22T19:47:55.759Z,4.23
2018-12-22T19:50:33.057Z,5.20
2018-12-22T19:53:07.268Z,5.47
2018-12-22T19:55:41.558Z,3.90
2018-12-22T19:58:15.958Z,4.10
2018-12-22T20:00:50.345Z,6.07
2018-12-22T20:03:24.673Z,4.50
2018-12-22T20:05:58.976Z,3.17
2018-12-22T20:08:33.257Z,3.73
2018-12-22T20:11:07.514Z,4.13
2018-12-22T20:13:41.903Z,5.73
2018-12-22T20:16:16.130Z,5.43
2018-12-22T20:18:50.473Z,5.10
2018-12-22T20:21:24.833Z,7.93
2018-12-22T20:23:59.324Z,3.50
2018-12-22T20:26:33.601Z,8.10
2018-12-22T20:29:07.842Z,5.43
2018-12-22T20:31:42.164Z,10.83
2018-12-22T20:34:16.453Z,13.03
2018-12-22T20:36:50.909Z,15.07
2018-12-22T20:39:25.229Z,11.90
2018-12-22T20:41:59.458Z,10.73
2018-12-22T20:44:33.889Z,11.53
2018-12-22T20:47:08.363Z,11.00
2018-12-22T20:49:42.741Z,19.97
2018-12-22T20:52:17.136Z,11.67
2018-12-22T20:54:51.492Z,12.47
2018-12-22T20:57:25.817Z,10.87
2018-12-22T21:00:00.441Z,9.63
2018-12-22T21:02:34.864Z,12.83
2018-12-22T21:05:09.215Z,12.67
2018-12-22T21:07:43.599Z,10.53
2018-12-22T21:10:17.958Z,8.10
2018-12-22T21:12:52.316Z,9.07
2018-12-22T21:15:26.675Z,7.10
2018-12-22T21:18:01.120Z,8.90
2018-12-22T21:20:35.381Z,11.03
2018-12-22T21:23:09.688Z,12.37
2018-12-22T21:25:43.903Z,9.50
2018-12-22T21:28:18.350Z,6.10
2018-12-22T21:30:52.701Z,13.43
2018-12-22T21:33:27.104Z,11.63
2018-12-22T21:36:03.415Z,12.83
2018-12-22T21:41:06.859Z,15.17
2018-12-22T21:43:41.204Z,11.40
2018-12-22T21:46:15.421Z,11.60
2018-12-22T21:48:50.656Z,10.83
2018-12-22T21:51:25.051Z,10.23
2018-12-22T21:53:59.416Z,10.70
2018-12-22T21:56:33.932Z,7.23
2018-12-22T21:59:08.142Z,10.97
2018-12-22T22:01:42.372Z,10.33
2018-12-22T22:04:16.594Z,15.83
2018-12-22T22:06:51.026Z,12.80
2018-12-22T22:09:25.369Z,15.17
2018-12-22T22:11:59.814Z,10.50
2018-12-22T22:14:34.276Z,11.87
2018-12-22T22:17:08.653Z,8.67
2018-12-22T22:19:43.014Z,9.03
2018-12-22T22:22:17.290Z,7.87
2018-12-22T22:24:51.793Z,7.07
2018-12-22T22:27:26.010Z,6.23
2018-12-22T22:30:00.483Z,7.77
2018-12-22T22:32:34.773Z,9.37
2018-12-22T22:35:09.107Z,6.97
2018-12-22T22:37:43.466Z,7.07
2018-12-22T22:40:17.700Z,11.90
2018-12-22T22:42:51.913Z,9.60
2018-12-22T22:45:26.243Z,13.53
2018-12-22T22:48:00.453Z,9.10
2018-12-22T22:50:34.905Z,6.80
2018-12-22T22:53:09.307Z,9.13
2018-12-22T22:55:43.558Z,9.43
2018-12-22T22:58:17.894Z,6.27
2018-12-22T23:00:52.439Z,10.33
2018-12-22T23:03:27.801Z,10.70
2018-12-22T23:06:02.024Z,7.97
2018-12-22T23:08:36.354Z,6.90
2018-12-22T23:11:10.810Z,6.07
2018-12-22T23:13:45.258Z,6.73
2018-12-22T23:16:19.679Z,8.50
2018-12-22T23:18:54.047Z,10.00
2018-12-22T23:21:28.463Z,6.97
2018-12-22T23:24:02.956Z,7.43
2018-12-22T23:26:37.219Z,6.47
2018-12-22T23:29:11.427Z,8.83
2018-12-22T23:31:45.727Z,6.27
2018-12-22T23:34:20.065Z,5.83
2018-12-22T23:36:54.435Z,5.10
2018-12-22T23:39:29.702Z,5.83
2018-12-22T23:42:04.153Z,5.23
2018-12-22T23:44:38.383Z,4.40
2018-12-22T23:47:12.764Z,8.03
2018-12-22T23:49:46.989Z,5.47
2018-12-22T23:52:21.312Z,9.03
2018-12-22T23:54:55.567Z,6.10
2018-12-22T23:57:29.886Z,5.43
